createdAt,value
2022-11-16T00:06:23.320Z,52.15
2022-11-16T00:16:25.651Z,42.42
2022-11-16T00:26:27.696Z,42.22
2022-11-16T00:36:29.964Z,40.22
2022-11-16T00:46:32.332Z,43.70
2022-11-16T00:56:34.962Z,38.78
2022-11-16T01:06:37.251Z,43.03
2022-11-16T01:16:39.412Z,38.58
2022-11-16T01:26:41.462Z,40.42
2022-11-16T01:36:43.944Z,35.70
2022-11-16T01:46:46.098Z,39.78
2022-11-16T01:56:51.814Z,45.75
2022-11-16T02:07:35.833Z,38.33
2022-11-16T02:18:10.142Z,40.00
2022-11-16T02:28:30.333Z,39.00
2022-11-16T02:48:42.391Z,35.15
2022-11-16T02:58:44.349Z,27.52
2022-11-16T03:09:12.177Z,21.90
2022-11-16T03:19:19.603Z,18.70
2022-11-16T03:29:36.147Z,14.38
2022-11-16T03:39:43.637Z,11.75
2022-11-16T03:49:46.748Z,12.07
2022-11-16T03:59:51.170Z,14.45
2022-11-16T04:09:53.345Z,12.98
2022-11-16T04:19:58.139Z,13.18
2022-11-16T04:30:04.027Z,10.82
2022-11-16T04:40:09.257Z,12.23
2022-11-16T04:50:11.722Z,12.98
2022-11-16T05:00:15.782Z,12.02
2022-11-16T05:10:18.850Z,12.38
2022-11-16T05:20:20.807Z,10.63
2022-11-16T05:30:26.273Z,14.70
2022-11-16T05:40:28.646Z,10.73
2022-11-16T05:50:36.281Z,15.43
2022-11-16T06:00:49.829Z,11.25
2022-11-16T06:10:52.868Z,10.82
2022-11-16T06:20:55.056Z,11.32
2022-11-16T06:30:57.600Z,12.05
2022-11-16T06:41:01.939Z,14.10
2022-11-16T06:51:06.072Z,15.15
2022-11-16T07:01:09.457Z,20.20
2022-11-16T07:11:13.914Z,15.65
2022-11-16T07:21:16.815Z,23.58
2022-11-16T07:31:19.776Z,57.78
2022-11-16T07:41:22.386Z,23.30
2022-11-16T07:51:34.084Z,25.33
2022-11-16T08:01:50.879Z,28.98
2022-11-16T08:11:53.028Z,30.80
2022-11-16T08:21:55.034Z,36.80
2022-11-16T08:31:57.033Z,30.40
2022-11-16T08:41:59.079Z,38.35
2022-11-16T08:52:00.982Z,31.55
2022-11-16T09:02:04.867Z,23.17
2022-11-16T09:12:07.258Z,23.00
2022-11-16T09:22:09.151Z,30.73
2022-11-16T09:32:11.138Z,26.25
2022-11-16T09:42:33.870Z,24.90
2022-11-16T09:52:41.639Z,20.85
2022-11-16T10:02:53.920Z,19.48
2022-11-16T10:13:05.935Z,16.60
2022-11-16T10:23:57.233Z,24.80
2022-11-16T10:34:01.914Z,29.02
2022-11-16T10:44:17.752Z,33.83
2022-11-16T10:54:19.738Z,33.85
2022-11-16T11:04:29.711Z,26.70
2022-11-16T11:14:31.565Z,36.13
2022-11-16T11:24:49.025Z,32.00
2022-11-16T11:34:53.764Z,33.30
2022-11-16T11:44:59.722Z,45.92
2022-11-16T11:55:05.510Z,37.70
2022-11-16T12:05:21.725Z,41.15
2022-11-16T12:15:36.062Z,33.83
2022-11-16T12:25:54.755Z,43.70
2022-11-16T12:36:01.376Z,51.20
2022-11-16T12:46:07.218Z,73.75
2022-11-16T12:56:33.068Z,52.38
2022-11-16T13:07:10.659Z,53.15
2022-11-16T13:17:28.542Z,52.42
2022-11-16T13:28:22.857Z,38.90
2022-11-16T13:38:49.896Z,36.15
2022-11-16T13:48:51.963Z,28.15
2022-11-16T13:58:53.799Z,30.98
2022-11-16T14:08:58.731Z,25.83
2022-11-16T14:19:02.036Z,19.05
2022-11-16T14:29:31.822Z,31.20
2022-11-16T14:39:39.693Z,12.73
2022-11-16T14:49:45.300Z,16.83
2022-11-16T14:59:47.574Z,24.40
2022-11-16T15:10:00.283Z,15.52
2022-11-16T15:20:25.628Z,22.10
2022-11-16T15:30:33.663Z,22.80
2022-11-16T15:40:35.843Z,17.60
2022-11-16T15:50:37.740Z,21.52
2022-11-16T16:00:39.962Z,22.85
2022-11-16T16:10:41.907Z,20.33
2022-11-16T16:20:48.393Z,17.15
2022-11-16T16:30:53.573Z,15.43
2022-11-16T16:41:01.289Z,15.00
2022-11-16T16:51:03.176Z,14.23
2022-11-16T17:01:05.604Z,14.85
2022-11-16T17:11:07.479Z,17.85
2022-11-16T17:21:09.770Z,16.85
2022-11-16T17:31:12.367Z,18.23
2022-11-16T17:41:19.936Z,29.10
2022-11-16T17:51:24.609Z,21.05
2022-11-16T18:01:27.416Z,24.05
2022-11-16T18:11:29.402Z,27.63
2022-11-16T18:21:31.929Z,25.42
2022-11-16T18:31:33.750Z,33.97
2022-11-16T18:41:36.059Z,24.48
2022-11-16T18:51:37.943Z,22.35
2022-11-16T19:01:39.949Z,15.27
2022-11-16T19:11:41.905Z,18.02
2022-11-16T19:21:43.925Z,13.00
2022-11-16T19:31:45.742Z,9.57
2022-11-16T19:41:47.636Z,11.20
2022-11-16T19:51:49.588Z,15.20
2022-11-16T20:01:51.452Z,14.80
2022-11-16T20:11:53.277Z,12.30
2022-11-16T20:21:55.203Z,12.98
2022-11-16T20:31:57.108Z,9.70
2022-11-16T20:41:58.981Z,11.02
2022-11-16T20:52:00.865Z,12.93
2022-11-16T21:02:02.804Z,11.35
2022-11-16T21:12:04.691Z,13.00
2022-11-16T21:22:06.562Z,7.80
2022-11-16T21:32:08.985Z,8.35
2022-11-16T21:42:10.871Z,9.93
2022-11-16T21:52:12.739Z,7.80
2022-11-16T22:02:14.611Z,9.48
2022-11-16T22:22:41.193Z,10.27
2022-11-16T22:32:43.526Z,8.55
2022-11-16T22:42:46.483Z,7.22
2022-11-16T22:52:48.612Z,6.35
2022-11-16T23:02:52.342Z,7.18
2022-11-16T23:12:54.382Z,4.00
2022-11-16T23:22:56.405Z,5.38
2022-11-16T23:32:58.595Z,7.70
2022-11-16T23:43:01.021Z,8.23
2022-11-16T23:53:03.916Z,5.97
